Peleus — V2FV2 — position and weather

sailwx.info

Track history (hours):
 
Tides and Currents Weather Stations Pressure Air Temp Water Temp Dewpoint Dewpoint Depression Visibility Wind Speed Wind Dir Waves Ship Positions

Peleus

Last reported at 2016-May-28 19:32 UTC. Time now 2016-May-29 01:58 UTC.
Position N 51°33' W 005°53'.

Length 88 m; draft 5.6 m.

Type: Cargo ship. MMSI: 305810000.

Date/timePositionNaut miles runAvg speedWind from/ knotsBaromVisibWave heightAir tempDewpointWater temp
2016-May-28 19:32N 51°33' W 005°53'10 9.1
2016-May-28 18:29N 51°24' W 005°57'13 9.1
2016-May-28 17:06N 51°12' W 006°03'5 9.5
2016-May-28 16:33N 51°07' W 006°06'68 9.6
2016-May-28 09:24N 50°02' W 006°37'910.2
2016-May-28 08:31N 49°53' W 006°41'  
2016-May-25 10:10N 39°08' W 009°51'5 8.6
2016-May-25 09:33N 39°03' W 009°51'9 8.6
2016-May-25 08:30N 38°54' W 009°51'8 8.5
2016-May-25 07:33N 38°46' W 009°50'8 8.5
2016-May-25 06:33N 38°38' W 009°49'9 8.6
2016-May-25 05:33N 38°29' W 009°47'9 8.5
2016-May-25 04:33N 38°21' W 009°44'9 8.9
2016-May-25 03:33N 38°12' W 009°42'9 8.7
2016-May-25 02:32N 38°04' W 009°39'11 9.1
2016-May-25 01:17N 37°52' W 009°36'7 9.5
2016-May-25 00:31N 37°45' W 009°34'84 8.2
2016-May-24 14:18N 36°36' W 008°35'8 9.2
2016-May-24 13:27N 36°33' W 008°26'31 9.2
2016-May-24 10:04N 36°24' W 007°49'18 9.4
2016-May-24 08:10N 36°18' W 007°28'6 9.2
2016-May-24 07:33N 36°16' W 007°21'10 9.6
2016-May-24 06:32N 36°13' W 007°10'77 9.6
2016-May-23 22:30N 35°58' W 005°36'7 7.5
2016-May-23 21:34N 35°60' W 005°28'6 6.2
2016-May-23 20:32N 36°01' W 005°20'7 7.5
2016-May-23 19:33N 35°54' W 005°19'0 0.2
2016-May-23 18:33N 35°54' W 005°19'0 0.0
2016-May-23 17:33N 35°54' W 005°19'0 0.0
2016-May-23 16:33N 35°54' W 005°19'1 0.8
2016-May-23 15:33N 35°55' W 005°19'1 0.6
2016-May-23 14:31N 35°55' W 005°20'0 0.1
2016-May-23 13:31N 35°55' W 005°20'0 0.0
2016-May-23 12:31N 35°55' W 005°20'0 0.0
2016-May-23 11:31N 35°55' W 005°20'0 0.1
2016-May-23 10:31N 35°55' W 005°20'0 0.0
2016-May-23 09:31N 35°55' W 005°20'0 0.0
2016-May-23 08:31N 35°55' W 005°20'0 0.0
2016-May-23 07:31N 35°55' W 005°20'0 0.1
2016-May-23 06:28N 35°55' W 005°20'0 0.1
2016-May-23 05:31N 35°55' W 005°19'0 0.0
2016-May-23 04:31N 35°55' W 005°19'0 0.0
2016-May-23 03:28N 35°55' W 005°19'2 2.7
2016-May-23 02:34N 35°55' W 005°17'188 8.5
2016-May-22 04:33N 36°31' W 001°28'9 8.7
2016-May-22 03:32N 36°32' W 001°17'11 9.0
2016-May-22 02:22N 36°34' W 001°04'7 9.0
2016-May-22 01:33N 36°35' W 000°55'9 9.1
2016-May-22 00:33N 36°36' W 000°44'10 9.5
2016-May-21 23:33N 36°38' W 000°32'9 9.4
2016-May-21 22:33N 36°39' W 000°21'10 9.8
2016-May-21 21:32N 36°41' W 000°09'10 9.7
2016-May-21 20:33N 36°42' E 000°03'10 9.9
2016-May-21 19:33N 36°43' E 000°16'10 9.8
2016-May-21 18:33N 36°44' E 000°28'10 9.6
2016-May-21 17:33N 36°46' E 000°40'10 9.8
2016-May-21 16:33N 36°48' E 000°52'9 9.3
2016-May-21 15:33N 36°49' E 001°03'9 8.8
2016-May-21 14:33N 36°50' E 001°14'9 9.0
2016-May-21 13:33N 36°52' E 001°25'9 8.7
2016-May-21 12:33N 36°53' E 001°36'8 8.5
2016-May-21 11:34N 36°54' E 001°46'18 8.9
2016-May-21 09:33N 36°57' E 002°09'  
2016-May-18 23:18N 37°09' E 013°08'810.1
2016-May-18 22:33N 37°06' E 013°17'1010.1
2016-May-18 21:33N 37°02' E 013°28'1010.2
2016-May-18 20:33N 36°58' E 013°40'10 9.9
2016-May-18 19:33N 36°55' E 013°52'  
Track history (hours):
 
Tides and Currents Weather Stations Pressure Air Temp Water Temp Dewpoint Dewpoint Depression Visibility Wind Speed Wind Dir Waves Ship Positions

Peleus

Last reported at 2016-May-28 19:32 UTC. Time now 2016-May-29 01:58 UTC.
Position N 51°33' W 005°53'.

Length 88 m; draft 5.6 m.

Type: Cargo ship. MMSI: 305810000.

Date/timePositionNaut miles runAvg speedWind from/ knotsBaromVisibWave heightAir tempDewpointWater temp
2016-May-28 19:32N 51°33' W 005°53'10 9.1
2016-May-28 18:29N 51°24' W 005°57'13 9.1
2016-May-28 17:06N 51°12' W 006°03'5 9.5
2016-May-28 16:33N 51°07' W 006°06'68 9.6
2016-May-28 09:24N 50°02' W 006°37'910.2
2016-May-28 08:31N 49°53' W 006°41'  
2016-May-25 10:10N 39°08' W 009°51'5 8.6
2016-May-25 09:33N 39°03' W 009°51'9 8.6
2016-May-25 08:30N 38°54' W 009°51'8 8.5
2016-May-25 07:33N 38°46' W 009°50'8 8.5
2016-May-25 06:33N 38°38' W 009°49'9 8.6
2016-May-25 05:33N 38°29' W 009°47'9 8.5
2016-May-25 04:33N 38°21' W 009°44'9 8.9
2016-May-25 03:33N 38°12' W 009°42'9 8.7
2016-May-25 02:32N 38°04' W 009°39'11 9.1
2016-May-25 01:17N 37°52' W 009°36'7 9.5
2016-May-25 00:31N 37°45' W 009°34'84 8.2
2016-May-24 14:18N 36°36' W 008°35'8 9.2
2016-May-24 13:27N 36°33' W 008°26'31 9.2
2016-May-24 10:04N 36°24' W 007°49'18 9.4
2016-May-24 08:10N 36°18' W 007°28'6 9.2
2016-May-24 07:33N 36°16' W 007°21'10 9.6
2016-May-24 06:32N 36°13' W 007°10'77 9.6
2016-May-23 22:30N 35°58' W 005°36'7 7.5
2016-May-23 21:34N 35°60' W 005°28'6 6.2
2016-May-23 20:32N 36°01' W 005°20'7 7.5
2016-May-23 19:33N 35°54' W 005°19'0 0.2
2016-May-23 18:33N 35°54' W 005°19'0 0.0
2016-May-23 17:33N 35°54' W 005°19'0 0.0
2016-May-23 16:33N 35°54' W 005°19'1 0.8
2016-May-23 15:33N 35°55' W 005°19'1 0.6
2016-May-23 14:31N 35°55' W 005°20'0 0.1
2016-May-23 13:31N 35°55' W 005°20'0 0.0
2016-May-23 12:31N 35°55' W 005°20'0 0.0
2016-May-23 11:31N 35°55' W 005°20'0 0.1
2016-May-23 10:31N 35°55' W 005°20'0 0.0
2016-May-23 09:31N 35°55' W 005°20'0 0.0
2016-May-23 08:31N 35°55' W 005°20'0 0.0
2016-May-23 07:31N 35°55' W 005°20'0 0.1
2016-May-23 06:28N 35°55' W 005°20'0 0.1
2016-May-23 05:31N 35°55' W 005°19'0 0.0
2016-May-23 04:31N 35°55' W 005°19'0 0.0
2016-May-23 03:28N 35°55' W 005°19'2 2.7
2016-May-23 02:34N 35°55' W 005°17'188 8.5
2016-May-22 04:33N 36°31' W 001°28'9 8.7
2016-May-22 03:32N 36°32' W 001°17'11 9.0
2016-May-22 02:22N 36°34' W 001°04'7 9.0
2016-May-22 01:33N 36°35' W 000°55'9 9.1
2016-May-22 00:33N 36°36' W 000°44'10 9.5
2016-May-21 23:33N 36°38' W 000°32'9 9.4
2016-May-21 22:33N 36°39' W 000°21'10 9.8
2016-May-21 21:32N 36°41' W 000°09'10 9.7
2016-May-21 20:33N 36°42' E 000°03'10 9.9
2016-May-21 19:33N 36°43' E 000°16'10 9.8
2016-May-21 18:33N 36°44' E 000°28'10 9.6
2016-May-21 17:33N 36°46' E 000°40'10 9.8
2016-May-21 16:33N 36°48' E 000°52'9 9.3
2016-May-21 15:33N 36°49' E 001°03'9 8.8
2016-May-21 14:33N 36°50' E 001°14'9 9.0
2016-May-21 13:33N 36°52' E 001°25'9 8.7
2016-May-21 12:33N 36°53' E 001°36'8 8.5
2016-May-21 11:34N 36°54' E 001°46'18 8.9
2016-May-21 09:33N 36°57' E 002°09'  
2016-May-18 23:18N 37°09' E 013°08'810.1
2016-May-18 22:33N 37°06' E 013°17'1010.1
2016-May-18 21:33N 37°02' E 013°28'1010.2
2016-May-18 20:33N 36°58' E 013°40'10 9.9
2016-May-18 19:33N 36°55' E 013°52'  

Dump ship's entire track history